createdAt,value
2022-07-29T00:02:17.853Z,53.26
2022-07-29T00:04:44.648Z,53.72
2022-07-29T00:07:11.382Z,53.86
2022-07-29T00:09:42.944Z,53.63
2022-07-29T00:12:25.164Z,53.87
2022-07-29T00:14:53.706Z,54.06
2022-07-29T00:17:20.315Z,53.78
2022-07-29T00:19:47.002Z,54.60
2022-07-29T00:22:13.622Z,54.48
2022-07-29T00:24:40.296Z,54.85
2022-07-29T00:27:06.964Z,55.12
2022-07-29T00:29:34.944Z,54.60
2022-07-29T00:32:02.649Z,55.21
2022-07-29T00:34:49.269Z,55.04
2022-07-29T00:37:15.837Z,55.76
2022-07-29T00:39:42.569Z,55.54
2022-07-29T00:42:10.166Z,56.42
2022-07-29T00:44:38.875Z,57.23
2022-07-29T00:47:05.902Z,56.86
2022-07-29T00:49:33.783Z,57.16
2022-07-29T00:52:03.259Z,57.08
2022-07-29T00:54:30.241Z,57.28
2022-07-29T00:57:00.203Z,56.95
2022-07-29T00:59:34.444Z,57.54
2022-07-29T01:02:02.777Z,57.56
2022-07-29T01:04:30.833Z,58.39
2022-07-29T01:06:58.054Z,57.90
2022-07-29T01:09:43.219Z,58.85
2022-07-29T01:12:19.885Z,58.32
2022-07-29T01:14:47.708Z,57.95
2022-07-29T01:30:53.068Z,59.66
2022-07-29T01:33:45.038Z,60.12
2022-07-29T01:36:15.755Z,59.70
2022-07-29T01:38:47.557Z,59.98
2022-07-29T01:41:18.551Z,60.00
2022-07-29T01:43:54.771Z,60.64
2022-07-29T01:46:25.600Z,61.71
2022-07-29T01:48:59.345Z,59.76
2022-07-29T01:51:33.727Z,60.18
2022-07-29T01:54:09.569Z,60.52
2022-07-29T01:56:39.103Z,60.08
2022-07-29T01:59:09.373Z,60.33
2022-07-29T02:01:38.466Z,60.79
2022-07-29T02:04:07.689Z,60.75
2022-07-29T02:06:38.401Z,60.42
2022-07-29T02:09:06.620Z,60.53
2022-07-29T02:11:36.780Z,60.35
2022-07-29T02:14:06.094Z,60.65
2022-07-29T02:16:37.012Z,60.41
2022-07-29T02:19:05.005Z,60.76
2022-07-29T02:21:34.759Z,60.56
2022-07-29T02:24:02.376Z,61.75
2022-07-29T02:26:30.466Z,61.61
2022-07-29T02:29:00.153Z,60.81
2022-07-29T02:31:30.695Z,61.68
2022-07-29T02:33:58.323Z,60.83
2022-07-29T02:36:27.165Z,61.37
2022-07-29T02:38:58.551Z,60.77
2022-07-29T02:41:30.648Z,60.60
2022-07-29T02:44:05.255Z,61.08
2022-07-29T02:46:35.617Z,61.20
2022-07-29T02:51:52.111Z,60.95
2022-07-29T02:54:30.638Z,61.25
2022-07-29T02:57:00.619Z,61.43
2022-07-29T02:59:31.819Z,61.37
2022-07-29T03:02:00.523Z,60.86
2022-07-29T03:04:29.521Z,61.04
2022-07-29T03:06:59.579Z,60.40
2022-07-29T03:09:27.627Z,61.33
2022-07-29T03:11:55.564Z,60.75
2022-07-29T03:14:23.999Z,60.81
2022-07-29T03:16:52.125Z,61.14
2022-07-29T03:19:20.074Z,60.66
2022-07-29T03:21:47.023Z,61.19
2022-07-29T03:24:33.061Z,61.04
2022-07-29T03:26:59.959Z,61.30
2022-07-29T03:29:33.822Z,61.90
2022-07-29T03:32:08.120Z,61.37
2022-07-29T03:34:36.764Z,61.41
2022-07-29T03:37:03.450Z,61.03
2022-07-29T03:39:34.103Z,61.64
2022-07-29T03:42:02.080Z,61.53
2022-07-29T03:44:30.221Z,61.86
2022-07-29T03:47:01.114Z,61.75
2022-07-29T03:49:28.623Z,61.68
2022-07-29T03:51:55.736Z,61.82
2022-07-29T03:54:22.562Z,62.24
2022-07-29T03:56:53.069Z,62.28
2022-07-29T03:59:22.381Z,62.48
2022-07-29T04:01:49.657Z,62.08
2022-07-29T04:04:16.921Z,62.50
2022-07-29T04:06:46.701Z,62.70
2022-07-29T04:09:15.458Z,62.82
2022-07-29T04:12:02.383Z,62.55
2022-07-29T04:14:29.472Z,62.50
2022-07-29T04:16:56.319Z,62.75
2022-07-29T04:19:23.571Z,62.97
2022-07-29T04:21:50.505Z,62.91
2022-07-29T04:24:17.739Z,63.23
2022-07-29T04:26:44.761Z,63.46
2022-07-29T04:29:12.921Z,63.45
2022-07-29T04:31:39.570Z,63.73
2022-07-29T04:34:06.335Z,64.03
2022-07-29T04:36:33.064Z,63.60
2022-07-29T04:38:59.883Z,63.47
2022-07-29T04:41:33.206Z,63.82
2022-07-29T04:44:06.816Z,63.81
2022-07-29T04:46:34.681Z,63.80
2022-07-29T04:49:01.588Z,63.55
2022-07-29T04:51:28.418Z,64.00
2022-07-29T04:53:55.068Z,63.60
2022-07-29T04:56:21.752Z,63.98
2022-07-29T04:58:48.580Z,63.46
2022-07-29T05:01:15.700Z,63.50
2022-07-29T05:03:42.382Z,63.73
2022-07-29T05:06:09.009Z,63.66
2022-07-29T05:08:35.657Z,63.79
2022-07-29T05:11:11.696Z,63.81
2022-07-29T05:13:46.053Z,63.54
2022-07-29T05:16:14.360Z,64.01
2022-07-29T05:18:41.784Z,63.92
2022-07-29T05:21:08.461Z,64.54
2022-07-29T05:23:35.151Z,64.66
2022-07-29T05:26:01.717Z,64.30
2022-07-29T05:28:28.298Z,64.27
2022-07-29T05:30:54.996Z,64.33
2022-07-29T05:33:35.021Z,64.17
2022-07-29T05:36:06.538Z,64.72
2022-07-29T05:38:33.787Z,64.53
2022-07-29T05:41:00.676Z,64.36
2022-07-29T05:43:28.702Z,64.39
2022-07-29T05:45:55.401Z,64.81
2022-07-29T05:48:22.033Z,63.98
2022-07-29T05:50:48.722Z,64.56
2022-07-29T05:53:19.017Z,64.01
2022-07-29T05:55:48.006Z,64.00
2022-07-29T05:58:14.608Z,64.47
2022-07-29T06:00:41.300Z,64.45
2022-07-29T06:03:07.944Z,64.09
2022-07-29T06:05:34.574Z,64.44
2022-07-29T06:08:01.284Z,64.68
2022-07-29T06:10:27.979Z,64.61
2022-07-29T06:12:54.770Z,64.14
2022-07-29T06:15:21.431Z,64.11
2022-07-29T06:17:59.223Z,64.38
2022-07-29T06:20:32.001Z,63.95
2022-07-29T06:22:59.714Z,64.35
2022-07-29T06:25:26.766Z,64.26
2022-07-29T06:27:53.469Z,64.26
2022-07-29T06:30:20.241Z,63.76
2022-07-29T06:32:47.246Z,64.04
2022-07-29T06:35:42.805Z,63.91
2022-07-29T06:38:00.437Z,64.01
2022-07-29T06:40:47.218Z,63.87
2022-07-29T06:43:14.404Z,63.62
2022-07-29T06:45:42.603Z,63.73
2022-07-29T06:48:10.526Z,63.54
2022-07-29T06:50:37.252Z,63.72
2022-07-29T06:53:04.463Z,63.85
2022-07-29T06:55:31.233Z,63.32
2022-07-29T06:57:58.903Z,62.99
2022-07-29T07:00:26.326Z,62.39
2022-07-29T07:02:53.021Z,62.65
2022-07-29T07:05:19.670Z,62.23
2022-07-29T07:07:46.728Z,61.93
2022-07-29T07:10:13.393Z,61.45
2022-07-29T07:12:40.062Z,61.54
2022-07-29T07:15:07.272Z,60.87
2022-07-29T07:17:33.867Z,61.28
2022-07-29T07:20:00.491Z,60.46
2022-07-29T07:22:27.065Z,60.83
2022-07-29T07:24:53.817Z,60.15
2022-07-29T07:27:20.406Z,59.90
2022-07-29T07:29:47.075Z,59.49
2022-07-29T07:32:14.508Z,59.87
2022-07-29T07:34:41.194Z,59.79
2022-07-29T07:37:07.808Z,59.76
2022-07-29T07:39:34.685Z,59.88
2022-07-29T07:42:01.401Z,59.59
2022-07-29T07:44:28.214Z,59.26
2022-07-29T07:46:55.142Z,59.38
2022-07-29T07:49:22.249Z,59.85
2022-07-29T07:51:50.394Z,59.68
2022-07-29T07:54:20.546Z,59.55
2022-07-29T07:56:50.816Z,59.32
2022-07-29T07:59:20.151Z,59.10
2022-07-29T08:01:55.014Z,59.84
2022-07-29T08:04:27.277Z,58.97
2022-07-29T08:06:55.718Z,59.11
2022-07-29T08:09:29.146Z,58.99
2022-07-29T08:11:57.893Z,59.09
2022-07-29T08:14:24.619Z,59.09
2022-07-29T08:16:52.278Z,58.14
2022-07-29T08:19:19.386Z,58.44
2022-07-29T08:21:46.361Z,58.42
2022-07-29T08:24:32.936Z,58.04
2022-07-29T08:26:59.670Z,56.24
2022-07-29T08:29:26.308Z,54.60
2022-07-29T08:31:53.212Z,54.60
2022-07-29T08:34:25.709Z,51.85
2022-07-29T08:36:54.679Z,52.04
2022-07-29T08:39:21.325Z,51.30
2022-07-29T08:41:57.162Z,50.55
2022-07-29T08:44:30.415Z,50.04
2022-07-29T08:46:58.265Z,50.61
2022-07-29T08:49:25.149Z,48.52
2022-07-29T08:51:52.569Z,48.37
2022-07-29T08:54:19.935Z,47.70
2022-07-29T08:56:50.939Z,48.26
2022-07-29T08:59:21.881Z,48.37
2022-07-29T09:01:53.768Z,47.37
2022-07-29T09:04:22.263Z,47.00
2022-07-29T09:06:52.331Z,46.08
2022-07-29T09:09:19.169Z,45.31
2022-07-29T09:11:45.861Z,45.10
2022-07-29T09:14:14.749Z,45.78
2022-07-29T09:19:38.319Z,44.60
2022-07-29T09:22:13.170Z,44.61
2022-07-29T09:30:07.372Z,45.02
2022-07-29T09:32:54.514Z,44.55
2022-07-29T09:35:26.241Z,43.96
2022-07-29T09:37:52.976Z,44.08
2022-07-29T09:40:22.676Z,43.25
2022-07-29T09:42:50.248Z,42.87
2022-07-29T09:45:34.653Z,42.06
2022-07-29T09:48:15.127Z,41.17
2022-07-29T09:50:43.155Z,41.10
2022-07-29T09:53:11.151Z,42.00
2022-07-29T09:55:53.673Z,42.13
2022-07-29T09:58:23.542Z,41.19
2022-07-29T10:00:51.685Z,40.28
2022-07-29T10:03:19.451Z,40.72
2022-07-29T10:05:47.354Z,39.97
2022-07-29T10:08:14.321Z,39.93
2022-07-29T10:10:43.058Z,39.21
2022-07-29T10:13:15.707Z,39.34
2022-07-29T10:15:46.781Z,39.76
2022-07-29T10:18:15.722Z,38.33
2022-07-29T10:20:42.796Z,38.27
2022-07-29T10:23:10.520Z,38.55
2022-07-29T10:25:37.222Z,37.68
2022-07-29T10:28:04.026Z,37.08
2022-07-29T10:30:31.896Z,37.95
2022-07-29T10:44:19.099Z,36.14
2022-07-29T10:46:47.203Z,36.23
2022-07-29T10:49:17.441Z,35.06
2022-07-29T10:52:06.455Z,35.13
2022-07-29T10:59:52.942Z,35.26
2022-07-29T11:10:48.279Z,34.46
2022-07-29T11:16:23.057Z,34.34
2022-07-29T11:19:21.542Z,33.25
2022-07-29T11:21:58.408Z,34.16
2022-07-29T11:24:32.052Z,32.68
2022-07-29T11:27:19.878Z,33.37
2022-07-29T11:32:37.537Z,33.67
2022-07-29T11:41:31.736Z,32.34
2022-07-29T11:44:01.464Z,33.23
2022-07-29T11:46:50.122Z,33.34
2022-07-29T11:49:32.073Z,32.23
2022-07-29T11:52:02.795Z,32.06
2022-07-29T11:54:38.830Z,32.52
2022-07-29T11:57:22.253Z,32.42
2022-07-29T11:59:49.229Z,31.82
2022-07-29T12:02:37.304Z,32.36
2022-07-29T12:07:51.069Z,32.33
2022-07-29T12:10:29.591Z,32.39
2022-07-29T12:12:56.718Z,32.48
2022-07-29T12:15:25.078Z,31.62
2022-07-29T12:18:15.725Z,32.94
2022-07-29T12:20:45.492Z,32.25
2022-07-29T12:23:13.484Z,32.14
2022-07-29T12:25:44.674Z,31.81
2022-07-29T12:28:26.802Z,31.57
2022-07-29T12:30:53.931Z,32.53
2022-07-29T12:36:12.792Z,32.47
2022-07-29T12:38:44.127Z,31.51
2022-07-29T12:41:11.367Z,31.56
2022-07-29T12:43:38.050Z,31.93
2022-07-29T12:46:15.047Z,31.08
2022-07-29T12:48:44.059Z,31.36
2022-07-29T12:51:12.784Z,32.08
2022-07-29T12:53:39.577Z,32.23
2022-07-29T12:56:20.598Z,31.66
2022-07-29T12:58:51.169Z,32.40
2022-07-29T13:01:20.444Z,31.57
2022-07-29T13:03:59.760Z,30.92
2022-07-29T13:06:32.053Z,30.13
2022-07-29T13:09:01.842Z,30.35
2022-07-29T13:11:30.938Z,29.86
2022-07-29T13:14:05.878Z,30.54
2022-07-29T13:16:33.952Z,30.97
2022-07-29T13:19:05.854Z,31.01
2022-07-29T13:21:32.665Z,30.94
2022-07-29T13:23:59.366Z,30.71
2022-07-29T13:26:25.957Z,31.42
2022-07-29T13:28:52.691Z,31.13
2022-07-29T13:31:19.326Z,30.97
2022-07-29T13:33:46.065Z,31.94
2022-07-29T13:36:12.817Z,31.34
2022-07-29T13:38:39.673Z,31.72
2022-07-29T13:41:06.621Z,32.26
2022-07-29T13:43:33.544Z,31.97
2022-07-29T13:46:00.583Z,31.31
2022-07-29T13:48:27.313Z,32.20
2022-07-29T13:50:53.951Z,32.07
2022-07-29T13:53:20.601Z,32.21
2022-07-29T13:55:54.213Z,32.61
2022-07-29T13:58:20.889Z,31.78
2022-07-29T14:00:47.717Z,32.05
2022-07-29T14:03:14.334Z,31.95
2022-07-29T14:05:40.934Z,32.48
2022-07-29T14:08:07.514Z,33.26
2022-07-29T14:10:34.116Z,33.05
2022-07-29T14:13:00.802Z,32.79
2022-07-29T14:15:27.380Z,32.32
2022-07-29T14:17:53.996Z,32.62
2022-07-29T14:20:20.772Z,32.39
2022-07-29T14:22:47.342Z,33.00
2022-07-29T14:25:15.076Z,32.87
2022-07-29T14:27:43.480Z,32.80
2022-07-29T14:30:10.798Z,32.98
2022-07-29T14:32:37.565Z,32.45
2022-07-29T14:35:05.244Z,32.64
2022-07-29T14:37:39.792Z,32.64
2022-07-29T14:40:08.079Z,32.78
2022-07-29T14:42:34.727Z,32.44
2022-07-29T14:45:01.378Z,32.80
2022-07-29T14:47:28.081Z,33.07
2022-07-29T14:49:54.724Z,33.05
2022-07-29T14:52:21.306Z,33.51
2022-07-29T14:54:47.954Z,32.92
2022-07-29T14:57:14.634Z,32.97
2022-07-29T14:59:41.320Z,33.64
2022-07-29T15:02:07.965Z,33.38
2022-07-29T15:04:34.678Z,33.04
2022-07-29T15:07:01.662Z,33.24
2022-07-29T15:09:28.302Z,34.08
2022-07-29T15:11:55.130Z,34.58
2022-07-29T15:14:22.082Z,34.21
2022-07-29T15:16:49.117Z,35.05
2022-07-29T15:19:15.771Z,34.67
2022-07-29T15:21:48.680Z,34.40
2022-07-29T15:24:17.500Z,34.32
2022-07-29T15:26:44.671Z,34.47
2022-07-29T15:29:11.356Z,34.22
2022-07-29T15:31:38.082Z,35.05
2022-07-29T15:34:06.276Z,34.82
2022-07-29T15:39:21.959Z,34.51
2022-07-29T15:41:48.895Z,34.22
2022-07-29T15:44:15.580Z,34.24
2022-07-29T15:47:02.528Z,33.84
2022-07-29T15:49:48.056Z,34.42
2022-07-29T15:52:26.201Z,34.73
2022-07-29T15:54:55.406Z,33.87
2022-07-29T15:57:22.196Z,34.55
2022-07-29T15:59:48.914Z,34.71
2022-07-29T16:02:15.658Z,34.86
2022-07-29T16:04:42.296Z,35.04
2022-07-29T16:07:09.030Z,34.14
2022-07-29T16:09:35.703Z,34.57
2022-07-29T16:12:02.313Z,35.20
2022-07-29T16:14:31.934Z,34.98
2022-07-29T16:16:58.776Z,35.36
2022-07-29T16:19:25.615Z,35.28
2022-07-29T16:21:52.940Z,35.15
2022-07-29T16:24:21.734Z,35.94
2022-07-29T16:26:48.433Z,34.79
2022-07-29T16:29:15.082Z,34.61
2022-07-29T16:31:41.750Z,35.39
2022-07-29T16:34:08.350Z,35.15
2022-07-29T16:36:35.017Z,35.88
2022-07-29T16:39:01.680Z,35.41
2022-07-29T16:41:29.698Z,35.79
2022-07-29T16:43:56.479Z,35.66
2022-07-29T16:46:24.380Z,35.81
2022-07-29T16:48:52.736Z,35.42
2022-07-29T16:51:19.412Z,35.95
2022-07-29T16:53:46.071Z,36.31
2022-07-29T16:56:16.993Z,36.32
2022-07-29T16:58:44.174Z,36.12
2022-07-29T17:01:11.503Z,36.45
2022-07-29T17:04:00.275Z,36.38
2022-07-29T17:06:28.729Z,37.14
2022-07-29T17:08:56.434Z,36.65
2022-07-29T17:11:23.058Z,37.00
2022-07-29T17:14:10.197Z,37.36
2022-07-29T17:16:36.978Z,37.06
2022-07-29T17:19:03.730Z,37.40
2022-07-29T17:21:30.383Z,37.21
2022-07-29T17:23:58.857Z,37.97
2022-07-29T17:26:28.128Z,37.82
2022-07-29T17:28:55.678Z,37.99
2022-07-29T17:31:23.442Z,37.71
2022-07-29T17:33:50.489Z,38.38
2022-07-29T17:36:25.276Z,38.58
2022-07-29T17:38:53.902Z,38.17
2022-07-29T17:41:22.042Z,38.51
2022-07-29T17:43:49.667Z,39.05
2022-07-29T17:46:18.440Z,38.59
2022-07-29T17:48:45.422Z,38.81
2022-07-29T17:51:13.578Z,38.44
2022-07-29T17:53:40.214Z,39.01
2022-07-29T17:56:07.076Z,39.26
2022-07-29T17:58:34.276Z,39.00
2022-07-29T18:01:01.119Z,39.31
2022-07-29T18:03:27.979Z,39.26
2022-07-29T18:05:54.704Z,38.86
2022-07-29T18:08:21.801Z,39.53
2022-07-29T18:10:48.428Z,39.28
2022-07-29T18:13:16.479Z,39.72
2022-07-29T18:15:45.126Z,39.78
2022-07-29T18:18:15.904Z,39.99
2022-07-29T18:20:43.879Z,39.92
2022-07-29T18:23:10.989Z,39.75
2022-07-29T18:25:39.021Z,39.88
2022-07-29T18:28:06.721Z,39.84
2022-07-29T18:30:36.801Z,39.44
2022-07-29T18:33:20.808Z,39.91
2022-07-29T18:35:51.351Z,39.98
2022-07-29T18:38:18.442Z,39.90
2022-07-29T18:40:45.976Z,39.98
2022-07-29T18:43:13.134Z,40.06
2022-07-29T18:45:40.062Z,39.88
2022-07-29T18:48:12.928Z,40.39
2022-07-29T18:50:41.245Z,40.10
2022-07-29T18:53:08.404Z,40.24
2022-07-29T18:55:35.019Z,40.13
2022-07-29T18:58:01.855Z,40.38
2022-07-29T19:00:28.684Z,40.49
2022-07-29T19:02:56.141Z,40.56
2022-07-29T19:05:24.690Z,40.66
2022-07-29T19:07:51.566Z,40.76
2022-07-29T19:10:18.285Z,40.79
2022-07-29T19:12:44.861Z,40.60
2022-07-29T19:15:11.646Z,41.36
2022-07-29T19:17:38.853Z,41.28
2022-07-29T19:20:07.227Z,41.07
2022-07-29T19:22:34.233Z,41.59
2022-07-29T19:25:00.842Z,41.57
2022-07-29T19:27:27.467Z,41.87
2022-07-29T19:29:59.019Z,41.91
2022-07-29T19:32:26.221Z,41.58
2022-07-29T19:35:13.357Z,42.46
2022-07-29T19:37:40.049Z,41.69
2022-07-29T19:40:07.268Z,42.07
2022-07-29T19:42:33.978Z,42.15
2022-07-29T19:45:00.566Z,42.53
2022-07-29T19:47:27.154Z,42.36
2022-07-29T19:49:53.792Z,42.68
2022-07-29T19:52:20.590Z,42.88
2022-07-29T19:54:47.175Z,43.07
2022-07-29T19:57:14.145Z,42.61
2022-07-29T19:59:41.242Z,43.04
2022-07-29T20:02:11.097Z,43.76
2022-07-29T20:04:38.603Z,43.30
2022-07-29T20:07:06.065Z,43.20
2022-07-29T20:09:32.833Z,43.68
2022-07-29T20:11:59.530Z,44.14
2022-07-29T20:14:26.205Z,43.67
2022-07-29T20:16:54.388Z,44.12
2022-07-29T20:19:21.146Z,44.00
2022-07-29T20:21:47.887Z,44.83
2022-07-29T20:24:14.544Z,44.58
2022-07-29T20:26:41.160Z,44.37
2022-07-29T20:29:07.919Z,45.19
2022-07-29T20:31:36.058Z,44.79
2022-07-29T20:34:02.832Z,44.73
2022-07-29T20:36:29.641Z,45.46
2022-07-29T20:38:56.437Z,45.01
2022-07-29T20:41:23.434Z,45.43
2022-07-29T20:43:50.053Z,45.59
2022-07-29T20:46:16.979Z,45.59
2022-07-29T20:48:43.733Z,45.09
2022-07-29T20:51:10.647Z,45.12
2022-07-29T20:53:39.955Z,45.93
2022-07-29T20:56:07.581Z,45.87
2022-07-29T20:58:36.140Z,46.15
2022-07-29T21:01:03.222Z,45.74
2022-07-29T21:03:30.000Z,46.03
2022-07-29T21:05:56.639Z,46.34
2022-07-29T21:08:23.300Z,46.64
2022-07-29T21:10:50.092Z,46.45
2022-07-29T21:13:17.122Z,46.53
2022-07-29T21:15:46.388Z,46.79
2022-07-29T21:18:27.057Z,46.73
2022-07-29T21:20:55.071Z,47.03
2022-07-29T21:23:21.787Z,47.18
2022-07-29T21:25:48.482Z,47.67
2022-07-29T21:28:35.114Z,47.59
2022-07-29T21:31:07.539Z,47.94
2022-07-29T21:33:35.049Z,48.00
2022-07-29T21:36:26.641Z,48.15
2022-07-29T21:38:49.758Z,48.40
2022-07-29T21:41:16.422Z,48.95
2022-07-29T21:43:43.039Z,49.27
2022-07-29T21:46:09.810Z,49.68
2022-07-29T21:48:40.113Z,49.79
2022-07-29T21:51:10.587Z,49.75
2022-07-29T21:53:37.271Z,49.88
2022-07-29T21:56:04.050Z,50.02
2022-07-29T21:58:32.602Z,50.39
2022-07-29T22:01:00.327Z,49.98
2022-07-29T22:03:27.555Z,49.73
2022-07-29T22:05:56.625Z,50.46
2022-07-29T22:08:23.250Z,50.11
2022-07-29T22:10:49.886Z,50.21
2022-07-29T22:13:16.674Z,50.29
2022-07-29T22:15:47.015Z,50.50
2022-07-29T22:18:14.189Z,50.59
2022-07-29T22:20:48.530Z,50.79
2022-07-29T22:23:15.157Z,51.17
2022-07-29T22:25:41.800Z,51.20
2022-07-29T22:28:08.419Z,51.24
2022-07-29T22:30:35.124Z,51.36
2022-07-29T22:33:01.845Z,51.26
2022-07-29T22:35:28.554Z,51.89
2022-07-29T22:37:55.193Z,51.93
2022-07-29T22:40:21.840Z,51.99
2022-07-29T22:42:48.527Z,52.00
2022-07-29T22:45:15.144Z,52.11
2022-07-29T22:47:48.375Z,52.20
2022-07-29T22:50:16.034Z,52.36
2022-07-29T22:52:42.709Z,52.87
2022-07-29T22:55:09.389Z,52.61
2022-07-29T22:57:36.151Z,53.16
2022-07-29T23:00:03.782Z,53.10
2022-07-29T23:02:30.433Z,52.84
2022-07-29T23:04:57.038Z,52.77
2022-07-29T23:07:24.277Z,53.11
2022-07-29T23:09:50.852Z,53.47
2022-07-29T23:12:17.672Z,53.24
2022-07-29T23:14:44.299Z,53.59
2022-07-29T23:17:11.101Z,53.61
2022-07-29T23:19:37.783Z,53.83
2022-07-29T23:22:04.857Z,53.49
2022-07-29T23:24:31.539Z,53.93
2022-07-29T23:26:58.612Z,53.93
2022-07-29T23:29:26.190Z,53.80
2022-07-29T23:31:52.803Z,54.32
2022-07-29T23:34:19.402Z,53.92
2022-07-29T23:36:46.078Z,54.16
2022-07-29T23:39:13.341Z,53.88
2022-07-29T23:41:40.531Z,54.26
2022-07-29T23:44:07.339Z,53.94
2022-07-29T23:46:34.174Z,54.21
2022-07-29T23:49:00.939Z,54.65
2022-07-29T23:51:29.266Z,54.36
2022-07-29T23:53:56.333Z,54.56
2022-07-29T23:56:23.226Z,54.34
2022-07-29T23:58:50.179Z,54.86
